createdAt,value
2018-11-04T00:01:12.194Z,30.70
2018-11-04T00:03:39.505Z,31.37
2018-11-04T00:06:06.793Z,32.00
2018-11-04T00:08:34.114Z,33.80
2018-11-04T00:11:01.409Z,32.43
2018-11-04T00:13:28.752Z,30.00
2018-11-04T00:15:56.047Z,30.97
2018-11-04T00:18:23.341Z,31.60
2018-11-04T00:20:50.631Z,31.83
2018-11-04T00:23:17.910Z,30.00
2018-11-04T00:25:45.188Z,31.87
2018-11-04T00:28:12.477Z,31.60
2018-11-04T00:30:39.758Z,32.47
2018-11-04T00:33:07.044Z,33.57
2018-11-04T00:35:34.337Z,32.93
2018-11-04T00:38:01.625Z,32.40
2018-11-04T00:40:28.912Z,34.23
2018-11-04T00:42:56.180Z,32.50
2018-11-04T00:45:23.543Z,33.13
2018-11-04T00:47:50.760Z,32.80
2018-11-04T00:50:18.058Z,31.87
2018-11-04T00:52:45.366Z,31.10
2018-11-04T00:55:12.984Z,32.80
2018-11-04T00:57:40.636Z,32.50
2018-11-04T01:00:10.969Z,32.50
2018-11-04T01:02:38.272Z,31.07
2018-11-04T01:05:06.590Z,34.70
2018-11-04T01:07:33.923Z,31.53
2018-11-04T01:10:01.209Z,32.07
2018-11-04T01:12:28.508Z,32.47
2018-11-04T01:14:55.849Z,33.77
2018-11-04T01:17:23.145Z,32.77
2018-11-04T01:19:50.461Z,33.60
2018-11-04T01:22:17.761Z,33.77
2018-11-04T01:24:45.061Z,33.53
2018-11-04T01:27:12.355Z,33.60
2018-11-04T01:29:39.662Z,32.23
2018-11-04T01:32:06.960Z,32.90
2018-11-04T01:34:34.264Z,36.83
2018-11-04T01:37:01.561Z,33.90
2018-11-04T01:39:28.853Z,34.40
2018-11-04T01:41:56.124Z,35.73
2018-11-04T01:44:23.412Z,34.60
2018-11-04T01:46:50.701Z,32.27
2018-11-04T01:49:17.993Z,34.00
2018-11-04T01:51:45.401Z,34.50
2018-11-04T01:54:12.669Z,34.90
2018-11-04T01:56:39.997Z,34.50
2018-11-04T01:59:07.277Z,35.57
2018-11-04T02:01:34.588Z,33.27
2018-11-04T02:04:01.953Z,33.20
2018-11-04T02:06:29.250Z,34.10
2018-11-04T02:08:56.785Z,33.30
2018-11-04T02:11:24.128Z,36.33
2018-11-04T02:13:51.504Z,32.73
2018-11-04T02:16:18.788Z,34.27
2018-11-04T02:18:46.073Z,34.40
2018-11-04T02:21:13.340Z,33.90
2018-11-04T02:23:40.920Z,33.83
2018-11-04T02:26:08.204Z,32.80
2018-11-04T02:28:35.601Z,31.93
2018-11-04T02:31:02.872Z,33.27
2018-11-04T02:33:30.327Z,32.87
2018-11-04T02:35:57.599Z,33.70
2018-11-04T02:38:24.901Z,34.00
2018-11-04T02:40:52.189Z,37.70
2018-11-04T02:43:19.876Z,37.10
2018-11-04T02:45:47.163Z,34.70
2018-11-04T02:48:14.461Z,34.63
2018-11-04T02:50:41.749Z,37.07
2018-11-04T02:53:09.109Z,34.67
2018-11-04T02:55:36.380Z,38.00
2018-11-04T02:58:03.681Z,37.27
2018-11-04T03:00:31.005Z,37.30
2018-11-04T03:02:58.434Z,37.93
2018-11-04T03:05:25.858Z,35.90
2018-11-04T03:07:53.181Z,38.00
2018-11-04T03:10:20.484Z,35.70
2018-11-04T03:12:47.772Z,37.57
2018-11-04T03:15:15.038Z,34.77
2018-11-04T03:17:42.340Z,36.30
2018-11-04T03:20:09.651Z,36.70
2018-11-04T03:22:36.972Z,35.17
2018-11-04T03:25:05.010Z,34.80
2018-11-04T03:27:32.349Z,34.53
2018-11-04T03:29:59.637Z,34.17
2018-11-04T03:32:26.998Z,35.53
2018-11-04T03:34:54.285Z,35.20
2018-11-04T03:37:21.566Z,34.53
2018-11-04T03:39:48.901Z,35.37
2018-11-04T03:42:16.365Z,34.13
2018-11-04T03:44:43.677Z,37.97
2018-11-04T03:47:10.957Z,34.80
2018-11-04T03:49:38.357Z,33.43
2018-11-04T03:52:05.880Z,36.70
2018-11-04T03:54:33.209Z,36.23
2018-11-04T03:57:00.698Z,35.80
2018-11-04T03:59:27.981Z,34.20
2018-11-04T04:01:55.269Z,34.50
2018-11-04T04:04:22.556Z,35.87
2018-11-04T04:06:49.840Z,35.60
2018-11-04T04:09:17.124Z,33.73
2018-11-04T04:11:44.400Z,33.27
2018-11-04T04:14:11.698Z,36.97
2018-11-04T04:16:39.102Z,32.87
2018-11-04T04:19:06.413Z,34.00
2018-11-04T04:21:33.677Z,33.87
2018-11-04T04:24:00.986Z,37.27
2018-11-04T04:26:28.274Z,34.97
2018-11-04T04:28:55.589Z,35.47
2018-11-04T04:31:22.879Z,34.00
2018-11-04T04:33:50.236Z,37.00
2018-11-04T04:36:17.554Z,33.77
2018-11-04T04:38:44.848Z,34.87
2018-11-04T04:41:12.129Z,34.03
2018-11-04T04:43:39.405Z,34.43
2018-11-04T04:46:06.691Z,35.77
2018-11-04T04:48:33.960Z,33.37
2018-11-04T04:51:01.332Z,34.23
2018-11-04T04:53:28.613Z,33.40
2018-11-04T04:55:56.808Z,31.77
2018-11-04T04:58:24.120Z,33.90
2018-11-04T05:00:51.925Z,34.80
2018-11-04T05:03:19.249Z,34.77
2018-11-04T05:05:46.580Z,33.47
2018-11-04T05:08:13.873Z,34.20
2018-11-04T05:10:41.156Z,35.70
2018-11-04T05:13:08.435Z,32.70
2018-11-04T05:15:36.547Z,32.80
2018-11-04T05:18:04.223Z,33.40
2018-11-04T05:20:31.529Z,33.70
2018-11-04T05:22:58.810Z,31.93
2018-11-04T05:25:26.097Z,35.30
2018-11-04T05:27:53.408Z,31.77
2018-11-04T05:30:20.676Z,32.40
2018-11-04T05:32:47.976Z,32.50
2018-11-04T05:35:15.245Z,31.80
2018-11-04T05:37:42.532Z,31.47
2018-11-04T05:40:09.822Z,32.50
2018-11-04T05:42:37.133Z,32.43
2018-11-04T05:45:05.428Z,31.17
2018-11-04T05:47:32.726Z,34.00
2018-11-04T05:50:00.083Z,32.67
2018-11-04T05:52:27.374Z,32.00
2018-11-04T05:54:54.730Z,31.63
2018-11-04T05:57:22.036Z,33.20
2018-11-04T05:59:49.340Z,31.03
2018-11-04T06:02:16.633Z,30.00
2018-11-04T06:04:43.913Z,29.73
2018-11-04T06:07:11.228Z,34.00
2018-11-04T06:09:38.525Z,37.10
2018-11-04T06:12:05.825Z,41.93
2018-11-04T06:14:33.109Z,35.73
2018-11-04T06:17:00.408Z,32.53
2018-11-04T06:19:27.759Z,33.37
2018-11-04T06:21:55.010Z,34.57
2018-11-04T06:24:22.294Z,35.03
2018-11-04T06:26:49.621Z,34.30
2018-11-04T06:29:16.972Z,32.63
2018-11-04T06:31:44.297Z,32.80
2018-11-04T06:34:11.697Z,32.30
2018-11-04T06:36:39.033Z,32.30
2018-11-04T06:39:07.366Z,32.00
2018-11-04T06:41:34.710Z,32.10
2018-11-04T06:44:02.041Z,32.23
2018-11-04T06:46:29.357Z,31.63
2018-11-04T06:48:56.677Z,33.27
2018-11-04T06:51:23.970Z,32.40
2018-11-04T06:53:51.254Z,31.77
2018-11-04T06:56:18.589Z,31.50
2018-11-04T06:58:45.898Z,30.23
2018-11-04T07:01:13.190Z,31.00
2018-11-04T07:03:50.780Z,28.33
2018-11-04T07:06:18.120Z,31.77
2018-11-04T07:08:45.445Z,29.87
2018-11-04T07:11:12.712Z,29.60
2018-11-04T07:13:40.042Z,30.40
2018-11-04T07:16:07.338Z,31.73
2018-11-04T07:18:34.609Z,34.10
2018-11-04T07:21:01.978Z,53.50
2018-11-04T07:23:29.264Z,37.37
2018-11-04T07:25:56.615Z,37.70
2018-11-04T07:28:23.911Z,36.90
2018-11-04T07:30:51.176Z,35.20
2018-11-04T07:33:18.458Z,34.90
2018-11-04T07:35:45.737Z,33.03
2018-11-04T07:38:13.072Z,33.07
2018-11-04T07:40:40.352Z,33.80
2018-11-04T07:43:07.629Z,35.70
2018-11-04T07:45:35.038Z,33.80
2018-11-04T07:48:02.335Z,33.77
2018-11-04T07:50:29.688Z,31.00
2018-11-04T07:52:56.920Z,30.87
2018-11-04T07:55:24.206Z,31.37
2018-11-04T07:57:51.492Z,34.30
2018-11-04T08:00:18.778Z,35.00
2018-11-04T08:02:46.161Z,36.03
2018-11-04T08:05:13.534Z,43.67
2018-11-04T08:07:41.229Z,34.30
2018-11-04T08:10:10.652Z,31.53
2018-11-04T08:12:38.480Z,29.77
2018-11-04T08:15:05.781Z,29.07
2018-11-04T08:17:33.056Z,29.87
2018-11-04T08:20:00.373Z,29.90
2018-11-04T08:22:28.046Z,28.83
2018-11-04T08:24:55.322Z,28.67
2018-11-04T08:27:22.607Z,29.93
2018-11-04T08:29:49.872Z,29.67
2018-11-04T08:32:17.173Z,29.47
2018-11-04T08:34:44.440Z,33.20
2018-11-04T08:37:11.722Z,38.37
2018-11-04T08:39:39.023Z,35.57
2018-11-04T08:42:06.540Z,32.27
2018-11-04T08:44:33.836Z,26.77
2018-11-04T08:47:01.113Z,28.40
2018-11-04T08:49:28.377Z,28.47
2018-11-04T08:51:55.661Z,27.27
2018-11-04T08:54:22.943Z,29.17
2018-11-04T08:56:50.231Z,27.23
2018-11-04T08:59:17.533Z,28.60
2018-11-04T09:01:44.825Z,24.87
2018-11-04T09:04:12.121Z,28.10
2018-11-04T09:06:39.551Z,30.97
2018-11-04T09:09:06.819Z,29.90
2018-11-04T09:11:34.122Z,28.83
2018-11-04T09:14:01.404Z,25.10
2018-11-04T09:16:28.724Z,23.57
2018-11-04T09:18:56.245Z,29.10
2018-11-04T09:21:23.529Z,36.20
2018-11-04T09:23:50.849Z,26.00
2018-11-04T09:26:18.145Z,23.13
2018-11-04T09:28:45.470Z,29.93
2018-11-04T09:31:12.728Z,27.13
2018-11-04T09:33:40.032Z,22.33
2018-11-04T09:36:07.371Z,22.73
2018-11-04T09:38:34.581Z,20.77
2018-11-04T09:41:01.880Z,19.93
2018-11-04T09:43:29.298Z,24.20
2018-11-04T09:45:56.566Z,21.00
2018-11-04T09:48:23.982Z,21.40
2018-11-04T09:50:51.265Z,20.80
2018-11-04T09:53:18.537Z,20.60
2018-11-04T09:55:45.821Z,20.83
2018-11-04T09:58:13.097Z,20.10
2018-11-04T10:00:40.369Z,24.70
2018-11-04T10:03:07.671Z,24.40
2018-11-04T10:05:34.986Z,21.97
2018-11-04T10:08:02.265Z,21.20
2018-11-04T10:10:29.539Z,21.20
2018-11-04T10:12:56.908Z,21.00
2018-11-04T10:15:24.180Z,19.90
2018-11-04T10:17:51.465Z,20.07
2018-11-04T10:20:18.931Z,18.50
2018-11-04T10:22:46.052Z,19.53
2018-11-04T10:25:13.324Z,17.37
2018-11-04T10:27:41.149Z,18.50
2018-11-04T10:30:11.195Z,17.00
2018-11-04T10:32:38.520Z,17.83
2018-11-04T10:35:06.502Z,19.13
2018-11-04T10:37:33.768Z,20.23
2018-11-04T10:40:01.085Z,19.67
2018-11-04T10:42:28.623Z,22.17
2018-11-04T10:44:55.836Z,20.87
2018-11-04T10:47:23.104Z,19.97
2018-11-04T10:49:50.452Z,21.20
2018-11-04T10:52:17.668Z,19.50
2018-11-04T10:54:44.958Z,18.10
2018-11-04T10:57:12.234Z,17.27
2018-11-04T10:59:39.524Z,16.60
2018-11-04T11:02:06.796Z,22.90
2018-11-04T11:04:34.197Z,19.30
2018-11-04T11:07:01.396Z,16.70
2018-11-04T11:09:28.705Z,21.40
2018-11-04T11:11:55.978Z,18.90
2018-11-04T11:14:23.242Z,15.63
2018-11-04T11:16:50.525Z,14.70
2018-11-04T11:19:17.816Z,14.67
2018-11-04T11:21:45.146Z,16.30
2018-11-04T11:24:12.416Z,16.40
2018-11-04T11:26:39.711Z,15.87
2018-11-04T11:29:07.001Z,18.17
2018-11-04T11:31:34.289Z,18.17
2018-11-04T11:34:01.575Z,16.17
2018-11-04T11:36:28.868Z,19.67
2018-11-04T11:38:56.134Z,20.80
2018-11-04T11:41:23.425Z,16.20
2018-11-04T11:43:50.717Z,15.80
2018-11-04T11:46:17.998Z,17.00
2018-11-04T11:48:45.286Z,16.30
2018-11-04T11:51:12.585Z,18.07
2018-11-04T11:53:39.852Z,18.60
2018-11-04T11:56:07.129Z,16.30
2018-11-04T11:58:34.400Z,15.80
2018-11-04T12:01:01.696Z,13.53
2018-11-04T12:03:28.990Z,14.17
2018-11-04T12:05:56.285Z,16.40
2018-11-04T12:08:23.552Z,15.63
2018-11-04T12:10:50.862Z,14.17
2018-11-04T12:13:18.146Z,14.60
2018-11-04T12:15:45.437Z,15.20
2018-11-04T12:18:12.729Z,17.37
2018-11-04T12:20:40.013Z,19.07
2018-11-04T12:23:07.297Z,19.07
2018-11-04T12:25:34.568Z,18.70
2018-11-04T12:28:01.964Z,18.13
2018-11-04T12:30:29.237Z,19.90
2018-11-04T12:32:56.513Z,21.80
2018-11-04T12:35:23.818Z,18.83
2018-11-04T12:37:51.117Z,19.53
2018-11-04T12:40:18.388Z,18.07
2018-11-04T12:42:45.668Z,18.37
2018-11-04T12:45:13.532Z,16.63
2018-11-04T12:47:40.823Z,15.60
2018-11-04T12:50:08.844Z,13.87
2018-11-04T12:52:36.128Z,16.87
2018-11-04T12:55:03.776Z,15.50
2018-11-04T12:57:31.072Z,13.47
2018-11-04T12:59:58.344Z,15.00
2018-11-04T13:02:25.634Z,13.00
2018-11-04T13:04:52.912Z,14.27
2018-11-04T13:07:20.218Z,15.50
2018-11-04T13:09:47.652Z,14.43
2018-11-04T13:12:15.021Z,15.33
2018-11-04T13:14:42.297Z,17.43
2018-11-04T13:17:09.585Z,15.90
2018-11-04T13:19:36.969Z,17.17
2018-11-04T13:22:04.309Z,17.33
2018-11-04T13:24:31.729Z,18.30
2018-11-04T13:26:59.083Z,15.37
2018-11-04T13:29:26.296Z,12.30
2018-11-04T13:31:53.698Z,13.03
2018-11-04T13:34:21.021Z,12.30
2018-11-04T13:36:48.285Z,13.80
2018-11-04T13:39:15.809Z,15.90
2018-11-04T13:41:43.148Z,15.67
2018-11-04T13:44:10.448Z,14.20
2018-11-04T13:46:37.791Z,19.83
2018-11-04T13:49:05.089Z,17.07
2018-11-04T13:51:32.365Z,17.03
2018-11-04T13:53:59.651Z,16.57
2018-11-04T13:56:26.970Z,16.53
2018-11-04T13:58:54.371Z,15.43
2018-11-04T14:01:21.758Z,13.73
2018-11-04T14:03:49.056Z,15.83
2018-11-04T14:06:16.410Z,12.53
2018-11-04T14:08:43.917Z,13.27
2018-11-04T14:11:11.192Z,15.37
2018-11-04T14:13:38.477Z,13.13
2018-11-04T14:16:05.796Z,13.47
2018-11-04T14:18:33.138Z,14.10
2018-11-04T14:21:00.674Z,14.07
2018-11-04T14:23:27.981Z,12.33
2018-11-04T14:25:55.326Z,11.60
2018-11-04T14:28:22.755Z,11.13
2018-11-04T14:30:50.131Z,10.60
2018-11-04T14:33:17.389Z,10.27
2018-11-04T14:35:44.664Z,10.27
2018-11-04T14:38:11.957Z,9.80
2018-11-04T14:40:39.252Z,10.97
2018-11-04T14:43:06.518Z,12.20
2018-11-04T14:45:33.960Z,11.90
2018-11-04T14:48:01.215Z,17.60
2018-11-04T14:50:28.498Z,14.50
2018-11-04T14:52:55.910Z,12.80
2018-11-04T14:55:23.212Z,13.63
2018-11-04T14:57:50.532Z,13.07
2018-11-04T15:00:17.801Z,11.57
2018-11-04T15:02:45.089Z,12.97
2018-11-04T15:05:12.393Z,19.67
2018-11-04T15:07:39.878Z,20.60
2018-11-04T15:10:08.990Z,22.40
2018-11-04T15:12:36.294Z,14.80
2018-11-04T15:15:04.167Z,18.03
2018-11-04T15:17:31.500Z,17.77
2018-11-04T15:19:58.772Z,17.53
2018-11-04T15:22:26.061Z,17.30
2018-11-04T15:24:53.363Z,15.20
2018-11-04T15:27:20.678Z,14.30
2018-11-04T15:29:47.985Z,13.03
2018-11-04T15:32:15.284Z,12.80
2018-11-04T15:34:42.788Z,14.13
2018-11-04T15:37:09.911Z,16.27
2018-11-04T15:39:37.193Z,17.57
2018-11-04T15:42:04.921Z,15.50
2018-11-04T15:44:32.196Z,16.47
2018-11-04T15:46:59.545Z,16.00
2018-11-04T15:49:26.836Z,16.33
2018-11-04T15:51:54.165Z,15.37
2018-11-04T15:54:21.568Z,15.97
2018-11-04T15:56:48.966Z,16.40
2018-11-04T15:59:16.268Z,14.80
2018-11-04T16:01:43.577Z,15.57
2018-11-04T16:04:10.883Z,15.63
2018-11-04T16:06:38.281Z,14.33
2018-11-04T16:09:06.658Z,15.67
2018-11-04T16:11:33.947Z,20.60
2018-11-04T16:14:01.298Z,18.00
2018-11-04T16:16:28.572Z,24.37
2018-11-04T16:18:55.969Z,21.03
2018-11-04T16:21:23.288Z,22.40
2018-11-04T16:23:50.672Z,19.73
2018-11-04T16:26:18.016Z,18.10
2018-11-04T16:28:45.384Z,17.53
2018-11-04T16:31:12.736Z,17.00
2018-11-04T16:33:40.091Z,16.90
2018-11-04T16:36:07.442Z,17.30
2018-11-04T16:38:34.720Z,15.33
2018-11-04T16:41:02.042Z,15.30
2018-11-04T16:43:29.517Z,16.00
2018-11-04T16:45:56.790Z,20.87
2018-11-04T16:48:24.069Z,20.23
2018-11-04T16:50:51.460Z,16.97
2018-11-04T16:53:18.744Z,23.50
2018-11-04T16:55:46.044Z,19.33
2018-11-04T16:58:13.375Z,17.77
2018-11-04T17:00:40.749Z,19.87
2018-11-04T17:03:08.456Z,22.50
2018-11-04T17:05:35.887Z,18.53
2018-11-04T17:08:03.153Z,22.13
2018-11-04T17:10:30.424Z,20.50
2018-11-04T17:12:57.676Z,17.30
2018-11-04T17:15:24.941Z,20.40
2018-11-04T17:17:52.196Z,17.87
2018-11-04T17:20:19.481Z,15.53
2018-11-04T17:22:46.768Z,15.63
2018-11-04T17:25:14.424Z,12.50
2018-11-04T17:27:41.800Z,13.20
2018-11-04T17:30:11.602Z,15.77
2018-11-04T17:32:38.971Z,21.93
2018-11-04T17:35:07.336Z,33.50
2018-11-04T17:37:34.617Z,16.37
2018-11-04T17:40:02.142Z,15.70
2018-11-04T17:42:29.437Z,14.43
2018-11-04T17:44:56.815Z,14.10
2018-11-04T17:47:24.165Z,14.97
2018-11-04T17:49:51.548Z,16.77
2018-11-04T17:52:18.819Z,20.30
2018-11-04T17:54:46.082Z,15.07
2018-11-04T17:57:14.340Z,15.23
2018-11-04T17:59:42.833Z,15.90
2018-11-04T18:02:10.140Z,17.53
2018-11-04T18:04:37.414Z,16.80
2018-11-04T18:07:04.818Z,19.13
2018-11-04T18:09:32.097Z,17.30
2018-11-04T18:11:59.369Z,30.83
2018-11-04T18:14:26.630Z,18.90
2018-11-04T18:16:53.966Z,20.77
2018-11-04T18:19:21.340Z,16.60
2018-11-04T18:21:48.648Z,18.60
2018-11-04T18:24:15.950Z,20.13
2018-11-04T18:26:43.275Z,17.20
2018-11-04T18:29:10.505Z,16.80
2018-11-04T18:31:37.793Z,17.17
2018-11-04T18:34:05.078Z,15.77
2018-11-04T18:36:32.361Z,18.47
2018-11-04T18:38:59.724Z,17.60
2018-11-04T18:41:27.005Z,14.70
2018-11-04T18:43:54.518Z,14.73
2018-11-04T18:46:21.640Z,15.43
2018-11-04T18:48:48.920Z,14.50
2018-11-04T18:51:16.197Z,17.33
2018-11-04T18:53:43.473Z,21.70
2018-11-04T18:56:10.768Z,22.80
2018-11-04T18:58:38.046Z,34.17
2018-11-04T19:01:05.461Z,42.93
2018-11-04T19:03:32.753Z,17.67
2018-11-04T19:06:00.037Z,15.80
2018-11-04T19:08:27.383Z,16.30
2018-11-04T19:10:54.772Z,15.63
2018-11-04T19:13:22.112Z,15.77
2018-11-04T19:15:49.382Z,15.37
2018-11-04T19:18:16.662Z,16.03
2018-11-04T19:20:43.949Z,15.53
2018-11-04T19:23:11.352Z,16.30
2018-11-04T19:25:38.648Z,15.47
2018-11-04T19:28:05.974Z,15.43
2018-11-04T19:30:33.418Z,17.00
2018-11-04T19:33:00.717Z,16.10
2018-11-04T19:35:28.770Z,16.20
2018-11-04T19:37:56.195Z,15.50
2018-11-04T19:40:23.545Z,16.20
2018-11-04T19:42:51.283Z,15.63
2018-11-04T19:45:18.668Z,15.90
2018-11-04T19:47:45.962Z,15.30
2018-11-04T19:50:13.490Z,14.83
2018-11-04T19:52:41.153Z,15.23
2018-11-04T19:55:08.945Z,14.63
2018-11-04T19:57:36.244Z,15.60
2018-11-04T20:00:05.366Z,15.80
2018-11-04T20:02:32.696Z,16.53
2018-11-04T20:05:00.026Z,14.97
2018-11-04T20:07:27.732Z,15.20
2018-11-04T20:09:55.357Z,15.50
2018-11-04T20:12:28.284Z,16.43
2018-11-04T20:14:55.592Z,16.77
2018-11-04T20:17:23.008Z,15.80
2018-11-04T20:19:55.978Z,17.40
2018-11-04T20:22:23.436Z,17.03
2018-11-04T20:24:56.577Z,16.60
2018-11-04T20:27:24.044Z,15.57
2018-11-04T20:29:51.637Z,16.97
2018-11-04T20:32:24.668Z,16.30
2018-11-04T20:34:51.962Z,17.00
2018-11-04T20:37:19.253Z,20.60
2018-11-04T20:39:52.353Z,20.47
2018-11-04T20:42:19.635Z,18.37
2018-11-04T20:44:47.946Z,21.23
2018-11-04T20:47:15.387Z,25.70
2018-11-04T20:49:48.438Z,20.00
2018-11-04T20:52:16.357Z,18.23
2018-11-04T20:54:43.700Z,19.67
2018-11-04T20:57:16.824Z,25.07
2018-11-04T20:59:44.120Z,22.43
2018-11-04T21:02:11.478Z,23.10
2018-11-04T21:04:38.705Z,16.83
2018-11-04T21:07:06.422Z,15.93
2018-11-04T21:09:33.706Z,17.20
2018-11-04T21:12:00.974Z,21.53
2018-11-04T21:14:28.377Z,21.87
2018-11-04T21:16:55.618Z,20.60
2018-11-04T21:19:22.957Z,18.20
2018-11-04T21:21:50.231Z,16.70
2018-11-04T21:24:17.525Z,16.60
2018-11-04T21:26:44.853Z,16.70
2018-11-04T21:29:12.287Z,17.83
2018-11-04T21:31:39.422Z,16.30
2018-11-04T21:34:06.704Z,17.03
2018-11-04T21:36:34.110Z,20.10
2018-11-04T21:39:01.301Z,18.70
2018-11-04T21:41:28.629Z,19.10
2018-11-04T21:43:56.036Z,20.07
2018-11-04T21:46:23.205Z,20.40
2018-11-04T21:48:50.497Z,20.23
2018-11-04T21:51:18.006Z,18.70
2018-11-04T21:53:45.152Z,17.40
2018-11-04T21:56:12.494Z,17.80
2018-11-04T21:58:39.822Z,18.70
2018-11-04T22:01:07.130Z,21.07
2018-11-04T22:03:34.506Z,18.70
2018-11-04T22:06:01.790Z,18.83
2018-11-04T22:08:29.201Z,17.47
2018-11-04T22:10:56.577Z,15.90
2018-11-04T22:13:23.876Z,14.50
2018-11-04T22:15:51.163Z,14.57
2018-11-04T22:18:18.507Z,15.20
2018-11-04T22:20:45.909Z,15.37
2018-11-04T22:23:13.190Z,15.70
2018-11-04T22:25:40.545Z,14.50
2018-11-04T22:28:07.962Z,15.67
2018-11-04T22:30:35.245Z,17.00
2018-11-04T22:33:02.516Z,18.03
2018-11-04T22:35:29.841Z,18.53
2018-11-04T22:37:57.126Z,17.60
2018-11-04T22:40:24.421Z,17.70
2018-11-04T22:42:51.727Z,17.90
2018-11-04T22:45:19.032Z,18.83
2018-11-04T22:47:46.334Z,18.17
2018-11-04T22:50:14.709Z,19.27
2018-11-04T22:52:42.416Z,21.37
2018-11-04T22:55:10.245Z,22.77
2018-11-04T22:57:37.529Z,21.33
2018-11-04T23:00:06.278Z,24.03
2018-11-04T23:02:33.608Z,22.70
2018-11-04T23:05:06.609Z,21.80
2018-11-04T23:07:33.987Z,17.97
2018-11-04T23:10:01.286Z,16.00
2018-11-04T23:15:01.685Z,17.50
2018-11-04T23:17:28.968Z,18.70
2018-11-04T23:19:56.256Z,16.80
2018-11-04T23:22:23.569Z,16.87
2018-11-04T23:24:50.844Z,16.67
2018-11-04T23:27:18.116Z,15.30
2018-11-04T23:29:45.392Z,16.90
2018-11-04T23:32:12.673Z,16.60
2018-11-04T23:34:39.967Z,18.57
2018-11-04T23:37:07.262Z,18.77
2018-11-04T23:39:34.549Z,20.30
2018-11-04T23:42:01.829Z,19.20
2018-11-04T23:44:29.133Z,19.60
2018-11-04T23:46:56.433Z,17.83
2018-11-04T23:49:23.705Z,20.97
2018-11-04T23:51:50.990Z,22.20
2018-11-04T23:54:18.273Z,19.57
2018-11-04T23:56:45.553Z,19.27
2018-11-04T23:59:12.845Z,20.17
